Time;durP1;ratioP1;P1;durP2;ratioP2;P2;SDS_P1;SDS_P2;PMS_P1;PMS_P2;Temp;Humidity;BMP_temperature;BMP_pressure;BME280_temperature;BME280_humidity;BME280_pressure;Samples;Min_cycle;Max_cycle;Signal;HPM_P1;HPM_P2
2022/05/12 00:00:14;;;;;;;3.20;1.00;;;11.70;99.90;;;;;;5116762;27;20045;-78
2022/05/12 00:02:40;;;;;;;5.05;0.90;;;11.60;99.90;;;;;;5083249;27;20501;-78
2022/05/12 00:05:06;;;;;;;5.15;0.95;;;11.50;99.90;;;;;;5116744;27;20130;-78
2022/05/12 00:07:31;;;;;;;4.28;1.20;;;11.50;99.90;;;;;;5099479;27;20043;-78
2022/05/12 00:09:57;;;;;;;2.97;0.90;;;11.50;99.90;;;;;;5134458;27;20043;-77
2022/05/12 00:12:23;;;;;;;3.92;1.00;;;11.40;99.90;;;;;;5116616;27;20043;-77
2022/05/12 00:14:49;;;;;;;4.03;0.82;;;11.40;99.90;;;;;;5116072;27;20467;-77
2022/05/12 00:17:15;;;;;;;4.65;1.05;;;11.30;99.90;;;;;;5082801;27;20043;-77
2022/05/12 00:19:40;;;;;;;5.88;1.20;;;11.30;99.90;;;;;;5115987;27;20126;-77
2022/05/12 00:22:06;;;;;;;3.20;0.75;;;11.30;99.90;;;;;;5116508;27;20149;-77
2022/05/12 00:24:31;;;;;;;5.40;1.00;;;11.20;99.90;;;;;;5082330;27;20082;-78
2022/05/12 00:26:57;;;;;;;3.95;0.90;;;11.20;99.90;;;;;;5115920;27;20070;-77
2022/05/12 00:29:23;;;;;;;4.72;1.20;;;11.10;99.90;;;;;;5082474;27;20051;-77
2022/05/12 00:31:49;;;;;;;3.17;1.05;;;11.20;99.90;;;;;;5098791;27;20134;-77
2022/05/12 00:34:16;;;;;;;2.40;0.75;;;11.10;99.90;;;;;;5115590;27;20426;-77
2022/05/12 00:36:41;;;;;;;4.80;1.10;;;11.00;99.90;;;;;;5115595;27;20087;-78
2022/05/12 00:39:07;;;;;;;4.60;1.08;;;11.00;99.90;;;;;;5116132;27;20085;-78
2022/05/12 00:41:33;;;;;;;2.05;0.95;;;11.00;99.90;;;;;;5115962;27;20043;-77
2022/05/12 00:44:02;;;;;;;2.67;0.90;;;11.00;99.90;;;;;;5065073;27;20092;-77
2022/05/12 00:46:31;;;;;;;4.03;1.27;;;10.90;99.90;;;;;;5082186;27;20088;-77
2022/05/12 00:48:59;;;;;;;4.53;1.20;;;10.90;99.90;;;;;;5115570;27;20050;-78
2022/05/12 00:51:30;;;;;;;4.38;1.98;;;10.90;99.90;;;;;;5115892;27;20130;-77
2022/05/12 00:53:57;;;;;;;4.38;1.30;;;10.90;99.90;;;;;;5082390;27;20441;-77
2022/05/12 00:56:22;;;;;;;5.18;1.67;;;10.90;99.90;;;;;;5065298;27;20047;-77
2022/05/12 00:58:49;;;;;;;3.28;1.20;;;10.80;99.90;;;;;;5098527;27;20095;-77
2022/05/12 01:01:15;;;;;;;3.47;1.60;;;10.80;99.90;;;;;;5082183;27;20039;-77
2022/05/12 01:03:41;;;;;;;5.85;1.60;;;10.80;99.90;;;;;;5081436;27;20092;-77
2022/05/12 01:06:07;;;;;;;3.63;1.10;;;10.70;99.90;;;;;;5115599;27;20150;-77
2022/05/12 01:08:33;;;;;;;4.40;1.40;;;10.70;99.90;;;;;;5082032;27;20050;-78
2022/05/12 01:11:01;;;;;;;3.55;1.00;;;10.70;99.90;;;;;;5098021;27;20051;-77
2022/05/12 01:13:27;;;;;;;3.47;1.30;;;10.70;99.90;;;;;;5098507;27;20491;-77
2022/05/12 01:15:55;;;;;;;6.55;1.30;;;10.70;99.90;;;;;;5115279;27;20134;-78
2022/05/12 01:18:20;;;;;;;4.63;1.30;;;10.60;99.90;;;;;;5082052;27;20398;-78
2022/05/12 01:20:46;;;;;;;4.85;1.08;;;10.60;99.90;;;;;;5064566;27;20051;-78
2022/05/12 01:23:22;;;;;;;5.40;1.25;;;10.50;99.90;;;;;;5098512;27;20047;-77
2022/05/12 01:25:48;;;;;;;2.67;0.95;;;10.60;99.90;;;;;;5097995;28;20043;-78
2022/05/12 01:28:14;;;;;;;3.47;1.33;;;10.50;99.90;;;;;;5098453;28;20085;-78
2022/05/12 01:30:39;;;;;;;5.13;1.60;;;10.50;99.90;;;;;;5081438;28;20043;-77
2022/05/12 01:33:05;;;;;;;5.45;1.48;;;10.50;99.90;;;;;;5097638;28;20069;-78
2022/05/12 01:35:32;;;;;;;8.65;1.77;;;10.40;99.90;;;;;;5115480;28;20055;-78
2022/05/12 01:37:58;;;;;;;1.92;1.30;;;10.40;99.90;;;;;;5132696;28;20502;-78
2022/05/12 01:40:24;;;;;;;8.38;1.63;;;10.40;99.90;;;;;;5081477;28;20046;-77
2022/05/12 01:42:49;;;;;;;2.90;1.60;;;10.40;99.90;;;;;;5114758;28;20043;-78
2022/05/12 01:45:15;;;;;;;5.20;1.55;;;10.30;99.90;;;;;;5081246;28;20082;-77
2022/05/12 01:47:41;;;;;;;4.07;1.77;;;10.40;99.90;;;;;;5081518;28;20069;-78
2022/05/12 01:50:07;;;;;;;4.53;1.70;;;10.30;99.90;;;;;;5114500;28;20043;-78
2022/05/12 01:52:33;;;;;;;4.07;1.50;;;10.30;99.90;;;;;;5064890;28;20047;-78
2022/05/12 01:54:59;;;;;;;4.07;1.98;;;10.30;99.90;;;;;;5097891;28;20080;-78
2022/05/12 01:57:25;;;;;;;5.15;1.60;;;10.20;99.90;;;;;;5117409;27;20054;-78
2022/05/12 01:59:50;;;;;;;2.83;1.42;;;10.20;99.90;;;;;;5084921;27;20409;-78
2022/05/12 02:02:16;;;;;;;3.35;1.52;;;10.20;99.90;;;;;;5102282;27;20432;-78
2022/05/12 02:04:42;;;;;;;4.78;1.60;;;10.20;99.90;;;;;;5101911;27;20544;-78
2022/05/12 02:07:08;;;;;;;3.58;1.48;;;10.20;99.90;;;;;;5101649;27;20042;-78
2022/05/12 02:09:33;;;;;;;5.80;1.63;;;10.20;99.90;;;;;;5102206;27;20407;-78
2022/05/12 02:11:59;;;;;;;4.18;1.88;;;10.10;99.90;;;;;;5118306;27;20042;-78
2022/05/12 02:14:25;;;;;;;3.10;1.60;;;10.10;99.90;;;;;;5085172;27;20050;-78
2022/05/12 02:16:50;;;;;;;4.20;1.60;;;10.00;99.90;;;;;;5101437;27;20043;-78
2022/05/12 02:19:17;;;;;;;3.25;1.73;;;10.00;99.90;;;;;;5068225;27;20047;-79
2022/05/12 02:21:43;;;;;;;6.13;1.85;;;10.10;99.90;;;;;;5101905;27;20051;-79
2022/05/12 02:24:08;;;;;;;4.90;1.65;;;10.00;99.90;;;;;;5101163;27;20043;-79
2022/05/12 02:26:34;;;;;;;3.88;1.90;;;10.00;99.90;;;;;;5084537;27;20187;-79
2022/05/12 02:34:17;;;;;;;7.40;2.13;;;9.90;99.90;;;;;;5474650;23;20059;-79
2022/05/12 02:37:00;;;;;;;4.10;1.88;;;9.90;99.90;;;;;;4957172;28;20058;-93
2022/05/12 02:39:35;;;;;;;4.07;1.70;;;9.90;99.90;;;;;;4958857;28;20051;-92
2022/05/12 02:42:01;;;;;;;3.15;1.67;;;9.90;99.90;;;;;;4958826;28;20513;-92
2022/05/12 02:44:27;;;;;;;8.98;2.35;;;9.90;99.90;;;;;;4973973;28;20059;-92
2022/05/12 02:46:53;;;;;;;7.28;2.20;;;9.80;99.90;;;;;;4973535;28;20043;-93
2022/05/12 02:49:18;;;;;;;7.60;2.22;;;9.90;99.90;;;;;;4973629;28;20510;-93
2022/05/12 02:51:44;;;;;;;7.22;1.98;;;9.90;99.90;;;;;;4958373;28;20495;-92
2022/05/12 02:54:11;;;;;;;7.75;2.10;;;9.80;99.90;;;;;;4958935;28;20051;-92
2022/05/12 02:56:38;;;;;;;5.28;2.13;;;9.80;99.90;;;;;;4973514;28;20134;-92
2022/05/12 02:59:05;;;;;;;8.52;2.42;;;9.80;99.90;;;;;;4957451;28;20062;-92
2022/05/12 03:01:31;;;;;;;6.95;2.42;;;9.90;99.90;;;;;;4973177;28;20098;-92
2022/05/12 03:03:57;;;;;;;6.25;3.03;;;9.80;99.90;;;;;;4989546;28;20055;-93
2022/05/12 03:06:22;;;;;;;4.80;2.40;;;9.80;99.90;;;;;;4958474;28;20087;-92
2022/05/12 03:08:48;;;;;;;6.32;2.30;;;9.80;99.90;;;;;;4972096;28;20051;-93
2022/05/12 03:11:14;;;;;;;7.53;2.75;;;9.80;99.90;;;;;;4958952;28;20543;-92
2022/05/12 03:13:39;;;;;;;13.18;2.80;;;9.80;99.90;;;;;;4989274;28;20047;-94
2022/05/12 03:16:05;;;;;;;5.30;2.72;;;9.80;99.90;;;;;;4958001;28;20047;-93
2022/05/12 03:18:31;;;;;;;7.03;2.75;;;9.80;99.90;;;;;;4989676;28;20198;-93
2022/05/12 03:20:56;;;;;;;5.20;2.38;;;9.80;99.90;;;;;;4973165;28;20059;-94
2022/05/12 03:23:22;;;;;;;5.65;2.50;;;9.80;99.90;;;;;;4957628;28;20156;-93
2022/05/12 03:25:49;;;;;;;6.55;2.53;;;9.70;99.90;;;;;;4989459;28;20110;-92
2022/05/12 03:28:15;;;;;;;6.47;2.67;;;9.70;99.90;;;;;;4956788;28;20126;-92
2022/05/12 03:30:42;;;;;;;4.95;2.40;;;9.60;99.90;;;;;;4989681;28;20043;-92
2022/05/12 03:33:08;;;;;;;5.22;2.40;;;9.70;99.90;;;;;;4972948;28;20051;-92
2022/05/12 03:35:33;;;;;;;6.45;2.88;;;9.60;99.90;;;;;;4957416;28;20130;-93
2022/05/12 03:38:00;;;;;;;10.50;2.63;;;9.60;99.90;;;;;;4972632;28;20043;-92
2022/05/12 03:40:25;;;;;;;10.98;3.00;;;9.60;99.90;;;;;;4973317;28;20102;-94
2022/05/12 03:42:52;;;;;;;6.82;2.55;;;9.60;99.90;;;;;;4956768;29;20059;-93
2022/05/12 03:45:18;;;;;;;8.05;2.63;;;9.60;99.90;;;;;;4957536;28;20114;-93
2022/05/12 03:47:48;;;;;;;6.50;2.65;;;9.60;99.90;;;;;;4958258;29;20048;-93
2022/05/12 03:50:16;;;;;;;5.60;3.10;;;9.50;99.90;;;;;;4988676;28;20087;-89
2022/05/12 03:52:42;;;;;;;6.85;3.45;;;9.60;99.90;;;;;;5012580;28;20031;-93
2022/05/12 03:55:10;;;;;;;7.72;3.60;;;9.60;99.90;;;;;;5012372;28;20045;-88
2022/05/12 03:57:35;;;;;;;9.10;3.80;;;9.60;99.90;;;;;;4970128;28;20059;-92
2022/05/12 04:00:03;;;;;;;7.22;3.28;;;9.60;99.90;;;;;;4985334;28;20360;-90
2022/05/12 04:02:29;;;;;;;6.25;3.13;;;9.50;99.90;;;;;;4972000;29;20078;-93
2022/05/12 04:04:54;;;;;;;7.30;3.40;;;9.60;99.90;;;;;;4967468;28;20043;-93
2022/05/12 04:07:21;;;;;;;7.25;3.10;;;9.50;99.90;;;;;;4957296;29;20117;-93
2022/05/12 04:09:47;;;;;;;8.80;3.22;;;9.50;99.90;;;;;;4956110;29;20439;-92
2022/05/12 04:12:12;;;;;;;10.05;3.33;;;9.50;99.90;;;;;;4971845;28;20054;-93
2022/05/12 04:14:39;;;;;;;8.73;3.42;;;9.50;99.90;;;;;;4957022;29;20391;-92
2022/05/12 04:17:05;;;;;;;10.63;3.83;;;9.50;99.90;;;;;;4971711;28;20454;-94
2022/05/12 04:19:31;;;;;;;9.20;3.42;;;9.50;99.90;;;;;;4955630;28;20126;-93
2022/05/12 04:21:57;;;;;;;6.90;3.60;;;9.50;99.90;;;;;;4956860;29;20130;-93
2022/05/12 04:24:22;;;;;;;10.93;4.18;;;9.50;99.90;;;;;;4956607;29;20047;-92
2022/05/12 04:26:48;;;;;;;12.80;4.13;;;9.60;99.90;;;;;;4956923;29;20071;-93
2022/05/12 04:29:14;;;;;;;15.27;4.20;;;9.60;99.90;;;;;;4971909;28;20093;-92
2022/05/12 04:31:40;;;;;;;8.98;3.60;;;9.60;99.90;;;;;;4972533;28;20043;-92
2022/05/12 04:36:50;;;;;;;8.27;3.35;;;9.60;99.90;;;;;;4990390;28;20054;-94
2022/05/12 04:39:17;;;;;;;10.52;4.45;;;9.70;99.90;;;;;;4957861;28;20379;-90
2022/05/12 04:41:43;;;;;;;8.23;3.60;;;9.70;99.90;;;;;;4956621;28;20566;-91
2022/05/12 04:44:09;;;;;;;8.80;4.47;;;9.70;99.90;;;;;;4955818;29;20055;-94
2022/05/12 04:46:35;;;;;;;9.18;3.80;;;9.70;99.90;;;;;;4956204;28;20110;-93
2022/05/12 04:49:04;;;;;;;10.63;4.03;;;9.80;99.90;;;;;;4988896;28;20050;-91
2022/05/12 04:51:30;;;;;;;10.63;3.83;;;9.80;99.90;;;;;;4940374;29;20058;-84
2022/05/12 04:53:55;;;;;;;9.30;4.15;;;9.80;99.90;;;;;;4972506;28;20434;-86
2022/05/12 04:56:21;;;;;;;8.40;4.32;;;9.90;99.90;;;;;;4973801;28;20494;-87
2022/05/12 04:58:47;;;;;;;10.15;4.38;;;9.90;99.90;;;;;;4959527;28;20133;-90
2022/05/12 05:01:12;;;;;;;8.63;4.07;;;9.90;99.90;;;;;;4971480;28;20047;-88
2022/05/12 05:03:38;;;;;;;7.30;3.92;;;10.00;99.90;;;;;;4955715;29;20074;-89
2022/05/12 05:06:04;;;;;;;11.32;4.10;;;10.00;99.90;;;;;;4955709;29;20523;-88
2022/05/12 05:08:29;;;;;;;11.38;4.22;;;10.10;99.90;;;;;;4987371;28;20051;-87
2022/05/12 05:10:55;;;;;;;11.00;4.70;;;10.10;99.90;;;;;;4987190;28;20186;-87
2022/05/12 05:13:22;;;;;;;10.45;4.40;;;10.10;99.90;;;;;;4987117;28;20047;-87
2022/05/12 05:15:48;;;;;;;10.20;4.70;;;10.10;99.90;;;;;;4956228;28;20057;-86
2022/05/12 05:18:15;;;;;;;9.38;4.70;;;10.20;99.90;;;;;;4955533;28;20465;-90
2022/05/12 05:20:41;;;;;;;10.32;5.00;;;10.20;99.90;;;;;;4971990;28;20047;-87
2022/05/12 05:23:07;;;;;;;12.52;4.90;;;10.20;99.90;;;;;;4972968;28;20050;-86
2022/05/12 05:25:33;;;;;;;12.50;4.80;;;10.30;99.90;;;;;;4956013;29;20048;-87
2022/05/12 05:27:59;;;;;;;9.13;5.55;;;10.30;99.90;;;;;;4956232;29;20043;-87
2022/05/12 05:30:25;;;;;;;10.10;5.35;;;10.30;99.90;;;;;;4970713;28;20074;-89
2022/05/12 05:32:51;;;;;;;9.95;5.03;;;10.40;99.90;;;;;;4993491;28;20407;-89
2022/05/12 05:35:16;;;;;;;11.52;4.65;;;10.40;99.90;;;;;;4964726;28;20059;-87
2022/05/12 05:37:42;;;;;;;9.45;5.25;;;10.40;99.90;;;;;;4984608;28;20041;-88
2022/05/12 05:40:10;;;;;;;9.70;5.10;;;10.50;99.90;;;;;;5001756;28;20031;-90
2022/05/12 05:42:35;;;;;;;8.15;4.53;;;10.50;99.90;;;;;;5001890;28;20059;-88
2022/05/12 05:45:08;;;;;;;9.65;5.20;;;10.60;99.90;;;;;;4983666;28;20051;-89
2022/05/12 05:47:34;;;;;;;11.60;5.53;;;10.60;99.90;;;;;;4982100;28;20051;-87
2022/05/12 05:50:00;;;;;;;10.10;5.45;;;10.60;99.90;;;;;;5005514;28;20078;-87
2022/05/12 05:55:10;;;;;;;10.82;5.47;;;10.70;99.90;;;;;;4962478;29;20368;-88
2022/05/12 05:57:36;;;;;;;13.15;5.65;;;10.70;99.90;;;;;;4962236;28;20086;-87
2022/05/12 06:00:05;;;;;;;12.60;6.10;;;10.80;99.90;;;;;;4978117;28;20415;-89
2022/05/12 06:02:31;;;;;;;11.73;5.72;;;10.80;99.90;;;;;;4961693;29;20047;-86
2022/05/12 06:04:57;;;;;;;13.80;5.57;;;10.90;99.90;;;;;;4977183;28;20054;-87
2022/05/12 06:07:23;;;;;;;11.50;5.60;;;10.90;99.90;;;;;;4976891;28;20047;-88
2022/05/12 06:09:49;;;;;;;10.15;5.05;;;11.00;99.90;;;;;;4976755;28;20094;-87
2022/05/12 06:12:14;;;;;;;10.50;4.85;;;11.00;99.90;;;;;;4961789;28;20077;-87
2022/05/12 06:14:40;;;;;;;10.98;5.38;;;11.10;99.90;;;;;;4962555;28;20091;-87
2022/05/12 06:17:06;;;;;;;12.80;4.78;;;11.10;99.90;;;;;;4962493;28;20066;-89
2022/05/12 06:19:32;;;;;;;9.57;4.97;;;11.20;99.90;;;;;;4976733;28;20047;-89
2022/05/12 06:21:57;;;;;;;10.10;4.80;;;11.20;99.90;;;;;;4961784;28;20370;-89
2022/05/12 06:24:23;;;;;;;9.35;4.43;;;11.30;99.90;;;;;;4961745;28;20043;-88
2022/05/12 06:26:49;;;;;;;11.63;4.22;;;11.30;99.90;;;;;;4961773;28;20051;-89
2022/05/12 06:29:15;;;;;;;11.98;3.80;;;11.30;99.90;;;;;;4962380;28;20395;-90
2022/05/12 06:31:42;;;;;;;10.45;4.03;;;11.40;99.90;;;;;;4962505;28;20086;-90
2022/05/12 06:34:07;;;;;;;9.35;3.95;;;11.40;99.90;;;;;;4961664;28;20067;-86
2022/05/12 06:36:33;;;;;;;10.48;4.53;;;11.50;99.90;;;;;;4976565;28;20051;-90
2022/05/12 06:38:59;;;;;;;9.82;4.00;;;11.60;99.90;;;;;;4945133;29;20062;-88
2022/05/12 06:41:26;;;;;;;7.78;4.00;;;11.60;99.90;;;;;;4977818;28;20043;-89
2022/05/12 06:43:52;;;;;;;10.05;4.05;;;11.70;99.90;;;;;;4958537;28;20487;-89
2022/05/12 06:46:18;;;;;;;10.63;4.50;;;11.70;99.90;;;;;;4942266;29;20102;-88
2022/05/12 06:48:46;;;;;;;9.85;4.15;;;11.80;99.90;;;;;;4973532;28;20055;-88
2022/05/12 06:51:11;;;;;;;9.70;4.20;;;11.80;99.90;;;;;;4957535;28;20087;-89
2022/05/12 06:53:38;;;;;;;12.48;4.47;;;11.90;99.90;;;;;;4958393;28;20086;-89
2022/05/12 06:56:04;;;;;;;9.32;4.50;;;12.00;99.90;;;;;;4989481;28;20054;-90
2022/05/12 06:58:30;;;;;;;8.45;3.95;;;12.10;99.90;;;;;;4973645;28;20047;-90
2022/05/12 07:00:56;;;;;;;9.32;4.53;;;12.10;99.90;;;;;;4973251;28;20511;-89
2022/05/12 07:03:22;;;;;;;9.80;4.40;;;12.30;99.90;;;;;;4958267;28;20054;-89
2022/05/12 07:05:48;;;;;;;12.32;4.53;;;12.30;99.90;;;;;;4973243;28;20043;-92
2022/05/12 07:08:13;;;;;;;8.98;4.03;;;12.40;99.90;;;;;;4957633;29;20501;-90
2022/05/12 07:10:39;;;;;;;6.93;3.67;;;12.40;99.90;;;;;;4957105;29;20558;-91
2022/05/12 07:13:05;;;;;;;9.63;3.72;;;12.50;99.90;;;;;;4957643;28;20062;-95
2022/05/12 07:15:31;;;;;;;9.77;3.40;;;12.60;99.90;;;;;;4958045;28;20134;-90
2022/05/12 07:17:57;;;;;;;9.80;3.50;;;12.70;99.90;;;;;;4973386;28;20380;-87
2022/05/12 07:28:37;;;;;;;10.40;3.40;;;13.00;99.90;;;;;;4977434;29;20107;-84
2022/05/12 07:31:05;;;;;;;11.88;3.35;;;13.10;99.90;;;;;;4987351;28;20047;-84
2022/05/12 07:33:33;;;;;;;6.75;2.90;;;13.20;99.90;;;;;;4987247;28;20043;-88
2022/05/12 07:35:59;;;;;;;7.88;2.88;;;13.40;99.90;;;;;;4969704;29;20051;-85
2022/05/12 07:38:28;;;;;;;9.15;2.78;;;13.50;99.90;;;;;;4995037;28;20054;-92
2022/05/12 07:40:54;;;;;;;9.45;2.97;;;13.80;99.90;;;;;;4943575;29;20051;-84
2022/05/12 07:43:20;;;;;;;8.32;2.28;;;13.90;99.90;;;;;;4975735;28;20070;-85
2022/05/12 07:45:47;;;;;;;8.13;2.25;;;14.10;99.90;;;;;;4959991;29;20109;-87
2022/05/12 07:48:12;;;;;;;9.18;2.35;;;14.30;99.90;;;;;;4974205;28;20055;-84
2022/05/12 07:50:39;;;;;;;9.13;2.30;;;14.40;99.90;;;;;;4958846;28;20074;-92
2022/05/12 07:53:06;;;;;;;8.02;1.83;;;14.40;99.90;;;;;;4942197;29;20055;-87
2022/05/12 07:55:32;;;;;;;10.18;1.92;;;14.50;99.90;;;;;;4958312;28;20055;-88
2022/05/12 07:57:59;;;;;;;6.80;1.95;;;14.60;99.90;;;;;;4958475;29;20093;-87
2022/05/12 08:00:25;;;;;;;8.27;2.00;;;14.60;99.90;;;;;;4958138;28;20070;-88
2022/05/12 08:02:51;;;;;;;12.13;2.67;;;14.60;99.90;;;;;;4973955;28;20126;-90
2022/05/12 08:05:18;;;;;;;7.57;1.67;;;14.60;99.90;;;;;;4957566;28;20066;-89
2022/05/12 08:07:45;;;;;;;8.52;1.90;;;14.70;99.90;;;;;;4972686;28;20047;-89
2022/05/12 08:10:11;;;;;;;8.32;1.95;;;14.80;99.90;;;;;;4972250;28;20090;-89
2022/05/12 08:12:37;;;;;;;8.75;1.95;;;14.80;99.90;;;;;;4973030;28;20054;-90
2022/05/12 08:15:04;;;;;;;5.82;1.52;;;14.80;99.90;;;;;;4956932;29;20062;-90
2022/05/12 08:17:30;;;;;;;6.75;1.90;;;14.90;99.90;;;;;;4957648;28;20055;-90
2022/05/12 08:19:55;;;;;;;7.95;1.50;;;14.90;99.90;;;;;;4972025;28;20133;-89
2022/05/12 08:22:21;;;;;;;6.18;1.70;;;15.00;99.90;;;;;;4956591;28;20051;-89
2022/05/12 08:24:47;;;;;;;6.03;1.63;;;15.10;99.80;;;;;;4955621;28;20054;-90
2022/05/12 08:27:13;;;;;;;8.40;2.03;;;15.20;99.10;;;;;;4955360;29;20043;-89
2022/05/12 08:29:41;;;;;;;8.30;1.40;;;15.20;99.30;;;;;;4987892;28;20062;-90
2022/05/12 08:32:07;;;;;;;7.70;1.90;;;15.30;98.60;;;;;;4971591;28;20107;-89
2022/05/12 08:34:33;;;;;;;6.13;2.00;;;15.40;98.10;;;;;;4939640;29;20113;-89
2022/05/12 08:36:58;;;;;;;5.57;1.58;;;15.50;97.70;;;;;;4939316;29;20082;-90
2022/05/12 08:39:24;;;;;;;7.07;1.48;;;15.70;97.30;;;;;;4955864;28;20086;-89
2022/05/12 08:41:54;;;;;;;7.07;1.80;;;15.80;96.70;;;;;;4956161;28;20058;-90
2022/05/12 08:44:20;;;;;;;5.97;1.50;;;15.90;95.80;;;;;;4955193;29;20424;-89
2022/05/12 08:46:49;;;;;;;9.15;1.42;;;16.00;95.60;;;;;;4971155;28;20095;-90
2022/05/12 08:49:15;;;;;;;4.67;1.60;;;16.00;95.40;;;;;;4972796;28;20047;-89
2022/05/12 08:51:41;;;;;;;7.18;1.73;;;16.10;95.60;;;;;;4955792;29;20394;-88
2022/05/12 08:54:11;;;;;;;8.48;1.80;;;16.10;95.40;;;;;;4971553;28;20082;-88
2022/05/12 08:56:37;;;;;;;;;;;16.20;95.40;;;;;;4971437;28;20051;-86
2022/05/12 08:59:03;;;;;;;8.73;1.70;;;16.20;96.90;;;;;;4987537;28;20049;-86
2022/05/12 09:01:40;;;;;;;5.88;1.67;;;16.30;95.70;;;;;;4957248;29;20054;-87
2022/05/12 09:04:30;;;;;;;7.68;1.70;;;16.40;94.50;;;;;;4954920;28;20437;-85
2022/05/12 09:07:18;;;;;;;5.50;1.60;;;16.40;93.60;;;;;;4955012;28;20051;-86
2022/05/12 09:10:05;;;;;;;6.40;1.70;;;16.40;93.70;;;;;;4958574;29;20035;-86
2022/05/12 09:12:52;;;;;;;6.82;1.67;;;16.30;93.30;;;;;;4979995;28;20079;-89
2022/05/12 09:15:26;;;;;;;5.35;1.40;;;16.20;92.10;;;;;;5011246;28;20048;-86
2022/05/12 09:18:22;;;;;;;5.45;1.63;;;16.20;93.00;;;;;;4976749;29;20046;-87
2022/05/12 09:20:48;;;;;;;6.80;1.38;;;16.20;92.60;;;;;;4972385;29;20062;-88
2022/05/12 09:23:13;;;;;;;4.45;1.40;;;16.20;93.10;;;;;;4988539;28;20043;-87
2022/05/12 09:25:44;;;;;;;5.10;1.50;;;16.30;93.10;;;;;;4967352;29;20051;-87
2022/05/12 09:28:15;;;;;;;;;;;16.40;92.90;;;;;;4973438;28;20047;-88
2022/05/12 09:30:42;;;;;;;4.63;1.50;;;16.50;92.30;;;;;;4955621;28;19922;-84
2022/05/12 09:33:08;;;;;;;6.50;1.63;;;16.50;93.20;;;;;;4956822;29;20479;-86
2022/05/12 09:35:34;;;;;;;6.05;1.23;;;16.60;91.60;;;;;;4956019;29;20082;-87
2022/05/12 09:38:00;;;;;;;5.35;1.73;;;16.50;91.00;;;;;;4955718;28;20050;-88
2022/05/12 09:40:37;;;;;;;6.82;1.77;;;16.60;91.40;;;;;;4970715;28;20047;-86
2022/05/12 09:43:17;;;;;;;2.97;1.38;;;16.80;90.60;;;;;;4956364;28;20051;-86
2022/05/12 09:45:44;;;;;;;6.38;1.65;;;16.90;88.20;;;;;;4955499;29;20055;-86
2022/05/12 09:48:20;;;;;;;6.25;1.60;;;17.00;88.70;;;;;;4970327;28;20051;-85
2022/05/12 09:50:46;;;;;;;6.25;1.33;;;16.90;86.00;;;;;;4955997;29;20062;-94
2022/05/12 09:53:13;;;;;;;5.93;1.70;;;16.80;85.90;;;;;;4955435;28;20458;-87
2022/05/12 09:55:41;;;;;;;6.20;1.30;;;16.70;86.00;;;;;;4954662;29;20074;-88
2022/05/12 09:58:17;;;;;;;4.05;1.23;;;16.90;85.00;;;;;;4970331;28;20126;-87
2022/05/12 10:00:48;;;;;;;4.40;1.23;;;17.00;88.90;;;;;;4986963;28;20055;-89
2022/05/12 10:09:08;;;;;;;5.38;1.33;;;17.20;83.50;;;;;;4955610;29;20059;-87
2022/05/12 10:12:00;;;;;;;6.07;1.50;;;17.20;82.30;;;;;;4955522;29;20051;-90
2022/05/12 10:14:50;;;;;;;4.78;1.20;;;17.10;82.80;;;;;;4955875;28;20130;-90
2022/05/12 10:17:28;;;;;;;5.22;1.40;;;17.20;82.00;;;;;;4955425;28;20051;-90
2022/05/12 10:19:54;;;;;;;7.50;1.35;;;17.20;82.10;;;;;;4974591;28;20410;-90
2022/05/12 10:22:37;;;;;;;7.20;1.67;;;17.20;81.70;;;;;;4957821;29;20110;-90
2022/05/12 10:25:27;;;;;;;5.20;1.60;;;17.20;79.90;;;;;;4941883;29;20051;-88
2022/05/12 10:28:03;;;;;;;9.70;1.67;;;17.20;81.00;;;;;;4940035;28;20059;-87
2022/05/12 10:30:49;;;;;;;3.13;1.10;;;17.30;78.80;;;;;;4974336;28;20067;-87
2022/05/12 10:33:59;;;;;;;4.20;1.20;;;17.20;79.20;;;;;;4973719;28;20093;-88
2022/05/12 10:36:44;;;;;;;;;;;17.20;77.40;;;;;;4944351;29;20055;-90
2022/05/12 10:39:15;;;;;;;4.80;1.13;;;17.20;79.70;;;;;;4959715;28;19922;-88
2022/05/12 10:42:11;;;;;;;5.63;1.17;;;17.40;77.10;;;;;;4959036;28;20125;-89
2022/05/12 10:44:36;;;;;;;5.18;1.33;;;17.50;75.80;;;;;;4972446;28;20106;-89
2022/05/12 10:47:29;;;;;;;4.05;1.40;;;17.60;78.80;;;;;;4957728;29;20047;-89
2022/05/12 10:50:02;;;;;;;4.65;1.20;;;17.80;80.10;;;;;;4959028;29;20054;-90
2022/05/12 10:52:38;;;;;;;6.13;1.80;;;17.90;77.50;;;;;;4974236;28;20055;-88
2022/05/12 10:55:31;;;;;;;5.57;1.50;;;18.10;74.60;;;;;;4973587;28;20043;-88
2022/05/12 10:58:03;;;;;;;3.72;1.45;;;18.40;74.10;;;;;;4959313;29;20435;-89
2022/05/12 11:00:34;;;;;;;7.82;1.50;;;18.50;72.70;;;;;;4959683;29;20051;-89
2022/05/12 11:03:09;;;;;;;6.22;1.40;;;18.40;71.80;;;;;;4957594;29;20435;-90
2022/05/12 11:05:45;;;;;;;7.60;1.55;;;18.30;71.40;;;;;;4958475;29;20051;-89
2022/05/12 11:08:35;;;;;;;5.43;1.30;;;18.10;74.20;;;;;;4993705;28;20083;-89
2022/05/12 11:11:05;;;;;;;4.63;1.23;;;18.10;72.60;;;;;;5014244;28;20090;-88
2022/05/12 11:13:40;;;;;;;4.97;1.60;;;18.10;73.90;;;;;;4996905;28;20042;-89
2022/05/12 11:16:15;;;;;;;5.88;1.73;;;18.10;72.20;;;;;;4979519;28;20058;-90
2022/05/12 11:18:49;;;;;;;3.95;1.20;;;18.20;71.70;;;;;;4996492;28;20051;-90
2022/05/12 11:21:20;;;;;;;3.88;1.20;;;18.30;68.50;;;;;;4976072;29;20050;-89
2022/05/12 11:24:37;;;;;;;4.30;1.40;;;18.30;67.20;;;;;;4995767;28;20043;-89
2022/05/12 11:27:09;;;;;;;5.10;1.30;;;18.30;68.40;;;;;;4936079;28;20055;-89
2022/05/12 11:29:54;;;;;;;4.45;1.38;;;18.30;70.10;;;;;;4956016;28;20047;-90
2022/05/12 11:32:38;;;;;;;3.10;1.02;;;18.40;65.70;;;;;;4958175;28;20053;-90
2022/05/12 11:35:18;;;;;;;5.28;1.45;;;18.40;66.50;;;;;;4958944;28;20059;-90
2022/05/12 11:37:44;;;;;;;5.03;1.25;;;18.30;65.40;;;;;;4957034;29;20058;-89
2022/05/12 11:40:28;;;;;;;3.30;1.40;;;18.20;67.10;;;;;;4958550;29;20048;-83
2022/05/12 11:45:48;;;;;;;6.57;1.40;;;18.40;66.10;;;;;;4970122;28;20062;-83
2022/05/12 11:48:29;;;;;;;5.05;1.30;;;18.40;64.70;;;;;;4972030;28;20107;-84
2022/05/12 11:51:10;;;;;;;6.18;1.58;;;18.50;65.20;;;;;;4956841;29;20062;-84
2022/05/12 11:54:20;;;;;;;4.32;1.50;;;18.40;65.60;;;;;;4971848;28;20051;-84
2022/05/12 11:56:49;;;;;;;4.43;1.48;;;18.30;65.00;;;;;;4952720;28;20059;-84
2022/05/12 11:59:17;;;;;;;6.00;1.40;;;18.20;68.80;;;;;;4955733;29;20085;-84
2022/05/12 12:02:04;;;;;;;5.28;1.35;;;18.20;68.10;;;;;;4988404;28;20047;-83
2022/05/12 12:04:51;;;;;;;3.70;1.35;;;18.10;65.20;;;;;;4956382;29;20047;-87
2022/05/12 12:07:31;;;;;;;4.95;1.55;;;18.00;67.60;;;;;;4972512;28;20051;-88
2022/05/12 12:10:23;;;;;;;7.43;1.60;;;17.90;66.50;;;;;;4957090;29;20062;-89
2022/05/12 12:12:56;;;;;;;4.18;1.23;;;17.90;66.40;;;;;;4951677;28;20058;-89
2022/05/12 12:15:30;;;;;;;5.15;1.40;;;18.00;67.50;;;;;;4957246;29;20051;-88
2022/05/12 12:17:56;;;;;;;4.80;1.30;;;18.30;67.90;;;;;;4971675;28;20043;-89
2022/05/12 12:20:28;;;;;;;7.97;1.45;;;18.50;66.00;;;;;;4940781;29;20093;-88
2022/05/12 12:22:53;;;;;;;3.92;1.10;;;18.70;64.60;;;;;;4956002;29;20047;-89
2022/05/12 12:25:25;;;;;;;4.30;1.25;;;18.70;63.30;;;;;;4971777;28;20047;-89
2022/05/12 12:27:55;;;;;;;7.10;1.50;;;18.70;62.70;;;;;;4956831;28;20047;-89
2022/05/12 12:30:23;;;;;;;6.22;1.40;;;18.60;63.70;;;;;;4957216;28;20110;-89
2022/05/12 12:33:11;;;;;;;5.20;1.50;;;18.70;61.80;;;;;;4957204;29;20083;-89
2022/05/12 12:35:52;;;;;;;7.13;1.73;;;18.70;61.30;;;;;;4957655;28;20167;-88
2022/05/12 12:38:40;;;;;;;3.47;1.20;;;18.80;63.60;;;;;;4956936;28;20086;-89
2022/05/12 12:41:05;;;;;;;6.72;1.42;;;18.90;58.80;;;;;;4955362;28;20079;-88
2022/05/12 12:43:35;;;;;;;3.80;1.40;;;18.90;61.30;;;;;;4971377;28;20086;-88
2022/05/12 12:46:07;;;;;;;6.85;1.30;;;19.00;61.00;;;;;;4972111;28;20142;-88
2022/05/12 12:48:35;;;;;;;4.20;1.30;;;19.10;59.60;;;;;;4971648;28;20376;-88
2022/05/12 12:51:01;;;;;;;2.88;1.08;;;19.30;58.60;;;;;;4971624;28;20063;-89
2022/05/12 12:56:31;;;;;;;3.75;0.80;;;19.60;57.10;;;;;;4969075;28;20098;-90
2022/05/12 12:59:13;;;;;;;3.75;1.40;;;19.60;55.80;;;;;;4956099;29;20050;-88
2022/05/12 13:01:54;;;;;;;4.53;1.50;;;19.60;57.00;;;;;;4955527;29;20120;-88
2022/05/12 13:04:26;;;;;;;3.50;1.30;;;19.50;58.40;;;;;;4954974;29;20051;-88
2022/05/12 13:06:54;;;;;;;3.65;1.25;;;19.60;58.60;;;;;;4956161;29;20134;-88
2022/05/12 13:09:27;;;;;;;3.88;1.13;;;19.70;57.90;;;;;;4971353;28;20462;-89
2022/05/12 13:12:21;;;;;;;4.45;1.02;;;19.80;55.80;;;;;;4956546;28;20472;-90
2022/05/12 13:14:49;;;;;;;2.90;0.98;;;19.90;55.30;;;;;;4976636;28;20046;-87
2022/05/12 13:17:36;;;;;;;4.15;0.70;;;20.00;52.90;;;;;;4995552;28;20027;-89
2022/05/12 13:20:04;;;;;;;7.25;0.93;;;20.20;52.00;;;;;;4995608;28;20091;-88
2022/05/12 13:22:39;;;;;;;4.80;1.10;;;20.10;51.70;;;;;;4980116;28;20043;-88
2022/05/12 13:25:05;;;;;;;5.00;0.80;;;20.20;49.90;;;;;;4979531;28;20062;-89
2022/05/12 13:27:38;;;;;;;1.80;0.88;;;20.20;49.40;;;;;;4994562;28;20043;-89
2022/05/12 13:30:14;;;;;;;4.57;0.95;;;20.20;50.40;;;;;;4976993;29;20099;-91